sensor_id;sensor_type;location;lat;lon;timestamp;P1;durP1;ratioP1;P2;durP2;ratioP2
8938;SDS011;4504;48.810;9.172;2024-03-29T09:14:28;127.82;;;7.20;;
8938;SDS011;4504;48.810;9.172;2024-03-29T09:16:54;126.45;;;7.10;;
8938;SDS011;4504;48.810;9.172;2024-03-29T09:19:20;125.27;;;6.80;;
8938;SDS011;4504;48.810;9.172;2024-03-29T09:21:46;125.30;;;7.00;;
8938;SDS011;4504;48.810;9.172;2024-03-29T09:24:12;125.28;;;6.45;;
8938;SDS011;4504;48.810;9.172;2024-03-29T09:26:38;123.40;;;6.10;;
8938;SDS011;4504;48.810;9.172;2024-03-29T09:29:08;123.32;;;6.10;;
8938;SDS011;4504;48.810;9.172;2024-03-29T09:31:34;121.75;;;5.82;;
8938;SDS011;4504;48.810;9.172;2024-03-29T09:34:00;124.32;;;6.15;;
8938;SDS011;4504;48.810;9.172;2024-03-29T09:36:26;122.97;;;6.33;;
8938;SDS011;4504;48.810;9.172;2024-03-29T09:38:52;122.27;;;6.27;;
8938;SDS011;4504;48.810;9.172;2024-03-29T09:41:18;122.10;;;5.90;;
8938;SDS011;4504;48.810;9.172;2024-03-29T09:43:45;122.22;;;5.40;;
8938;SDS011;4504;48.810;9.172;2024-03-29T09:46:16;121.68;;;5.65;;
8938;SDS011;4504;48.810;9.172;2024-03-29T09:48:43;122.38;;;5.70;;
8938;SDS011;4504;48.810;9.172;2024-03-29T09:51:13;121.78;;;6.07;;
8938;SDS011;4504;48.810;9.172;2024-03-29T09:53:40;121.13;;;5.72;;
8938;SDS011;4504;48.810;9.172;2024-03-29T09:56:07;121.18;;;5.60;;
8938;SDS011;4504;48.810;9.172;2024-03-29T09:58:34;120.00;;;5.40;;
8938;SDS011;4504;48.810;9.172;2024-03-29T10:01:01;120.07;;;5.55;;
8938;SDS011;4504;48.810;9.172;2024-03-29T10:03:30;120.32;;;4.95;;
8938;SDS011;4504;48.810;9.172;2024-03-29T10:05:59;120.20;;;4.95;;
8938;SDS011;4504;48.810;9.172;2024-03-29T10:08:29;120.20;;;5.13;;
8938;SDS011;4504;48.810;9.172;2024-03-29T10:10:58;120.15;;;5.40;;
8938;SDS011;4504;48.810;9.172;2024-03-29T10:13:24;119.82;;;5.22;;
8938;SDS011;4504;48.810;9.172;2024-03-29T10:15:50;120.63;;;5.43;;
8938;SDS011;4504;48.810;9.172;2024-03-29T10:18:24;125.68;;;6.43;;
8938;SDS011;4504;48.810;9.172;2024-03-29T10:23:28;119.45;;;4.97;;
8938;SDS011;4504;48.810;9.172;2024-03-29T10:25:55;119.90;;;5.18;;
8938;SDS011;4504;48.810;9.172;2024-03-29T10:28:22;119.63;;;4.80;;
8938;SDS011;4504;48.810;9.172;2024-03-29T10:30:48;118.97;;;4.80;;
8938;SDS011;4504;48.810;9.172;2024-03-29T10:33:15;119.43;;;5.30;;
8938;SDS011;4504;48.810;9.172;2024-03-29T10:35:42;119.20;;;4.95;;
8938;SDS011;4504;48.810;9.172;2024-03-29T10:38:11;118.22;;;5.00;;
8938;SDS011;4504;48.810;9.172;2024-03-29T10:40:38;119.22;;;5.00;;
8938;SDS011;4504;48.810;9.172;2024-03-29T10:43:11;118.53;;;5.18;;
8938;SDS011;4504;48.810;9.172;2024-03-29T10:45:41;118.00;;;4.90;;
8938;SDS011;4504;48.810;9.172;2024-03-29T10:48:16;119.43;;;4.90;;
8938;SDS011;4504;48.810;9.172;2024-03-29T10:50:42;119.65;;;4.90;;
8938;SDS011;4504;48.810;9.172;2024-03-29T10:53:09;118.53;;;4.82;;
8938;SDS011;4504;48.810;9.172;2024-03-29T10:55:36;120.50;;;4.78;;
8938;SDS011;4504;48.810;9.172;2024-03-29T10:58:05;118.72;;;4.95;;
8938;SDS011;4504;48.810;9.172;2024-03-29T11:00:37;118.63;;;4.60;;
8938;SDS011;4504;48.810;9.172;2024-03-29T11:03:20;122.97;;;4.85;;
8938;SDS011;4504;48.810;9.172;2024-03-29T11:05:50;118.45;;;4.65;;
8938;SDS011;4504;48.810;9.172;2024-03-29T11:08:24;117.07;;;4.35;;
8938;SDS011;4504;48.810;9.172;2024-03-29T11:10:53;123.35;;;5.13;;
8938;SDS011;4504;48.810;9.172;2024-03-29T11:16:09;116.65;;;4.20;;
8938;SDS011;4504;48.810;9.172;2024-03-29T11:18:36;117.97;;;5.30;;
8938;SDS011;4504;48.810;9.172;2024-03-29T11:21:03;118.72;;;4.88;;
8938;SDS011;4504;48.810;9.172;2024-03-29T11:23:33;116.22;;;4.20;;
8938;SDS011;4504;48.810;9.172;2024-03-29T11:26:00;117.07;;;4.53;;
8938;SDS011;4504;48.810;9.172;2024-03-29T11:31:05;117.78;;;4.30;;
8938;SDS011;4504;48.810;9.172;2024-03-29T11:38:38;115.82;;;4.03;;
8938;SDS011;4504;48.810;9.172;2024-03-29T11:41:05;115.78;;;4.00;;
8938;SDS011;4504;48.810;9.172;2024-03-29T11:43:33;116.72;;;4.00;;
8938;SDS011;4504;48.810;9.172;2024-03-29T11:46:00;115.43;;;3.95;;
8938;SDS011;4504;48.810;9.172;2024-03-29T11:48:29;115.97;;;3.70;;
8938;SDS011;4504;48.810;9.172;2024-03-29T11:50:58;116.25;;;3.90;;
8938;SDS011;4504;48.810;9.172;2024-03-29T11:53:25;115.13;;;3.83;;
8938;SDS011;4504;48.810;9.172;2024-03-29T11:55:53;119.22;;;4.07;;
8938;SDS011;4504;48.810;9.172;2024-03-29T11:58:20;115.00;;;4.30;;
8938;SDS011;4504;48.810;9.172;2024-03-29T12:00:46;115.47;;;3.97;;
8938;SDS011;4504;48.810;9.172;2024-03-29T12:03:14;116.40;;;4.25;;
8938;SDS011;4504;48.810;9.172;2024-03-29T12:05:41;116.22;;;4.07;;
8938;SDS011;4504;48.810;9.172;2024-03-29T12:08:11;116.07;;;4.40;;
8938;SDS011;4504;48.810;9.172;2024-03-29T12:10:38;116.03;;;3.90;;
8938;SDS011;4504;48.810;9.172;2024-03-29T12:13:04;116.03;;;3.90;;
8938;SDS011;4504;48.810;9.172;2024-03-29T12:15:31;116.53;;;4.10;;
8938;SDS011;4504;48.810;9.172;2024-03-29T12:17:57;117.85;;;4.10;;
8938;SDS011;4504;48.810;9.172;2024-03-29T12:20:24;116.28;;;3.90;;
8938;SDS011;4504;48.810;9.172;2024-03-29T12:22:50;116.32;;;4.75;;
8938;SDS011;4504;48.810;9.172;2024-03-29T12:25:17;119.68;;;4.25;;
8938;SDS011;4504;48.810;9.172;2024-03-29T12:27:45;115.90;;;3.80;;
8938;SDS011;4504;48.810;9.172;2024-03-29T12:30:12;115.75;;;3.92;;
8938;SDS011;4504;48.810;9.172;2024-03-29T12:32:39;114.28;;;3.53;;
8938;SDS011;4504;48.810;9.172;2024-03-29T12:35:09;113.72;;;3.50;;
8938;SDS011;4504;48.810;9.172;2024-03-29T12:37:36;115.05;;;3.47;;
8938;SDS011;4504;48.810;9.172;2024-03-29T12:40:02;113.70;;;3.70;;
8938;SDS011;4504;48.810;9.172;2024-03-29T12:42:37;113.10;;;3.50;;
8938;SDS011;4504;48.810;9.172;2024-03-29T12:45:04;114.20;;;3.40;;
8938;SDS011;4504;48.810;9.172;2024-03-29T12:47:31;113.63;;;3.90;;
8938;SDS011;4504;48.810;9.172;2024-03-29T12:49:59;114.70;;;3.23;;
8938;SDS011;4504;48.810;9.172;2024-03-29T12:52:39;111.47;;;3.30;;
8938;SDS011;4504;48.810;9.172;2024-03-29T12:55:06;112.87;;;3.10;;
8938;SDS011;4504;48.810;9.172;2024-03-29T12:57:33;111.80;;;2.80;;
8938;SDS011;4504;48.810;9.172;2024-03-29T13:00:00;112.87;;;3.07;;
8938;SDS011;4504;48.810;9.172;2024-03-29T13:02:26;112.57;;;3.40;;
8938;SDS011;4504;48.810;9.172;2024-03-29T13:04:52;113.57;;;3.10;;
8938;SDS011;4504;48.810;9.172;2024-03-29T13:07:17;113.17;;;3.13;;
8938;SDS011;4504;48.810;9.172;2024-03-29T13:09:43;112.97;;;3.20;;
8938;SDS011;4504;48.810;9.172;2024-03-29T13:12:09;113.07;;;3.17;;
8938;SDS011;4504;48.810;9.172;2024-03-29T13:14:35;112.67;;;3.00;;
8938;SDS011;4504;48.810;9.172;2024-03-29T13:17:01;113.67;;;3.10;;
8938;SDS011;4504;48.810;9.172;2024-03-29T13:19:27;111.87;;;2.83;;
8938;SDS011;4504;48.810;9.172;2024-03-29T13:21:53;111.93;;;2.80;;
8938;SDS011;4504;48.810;9.172;2024-03-29T13:24:18;110.07;;;2.60;;
8938;SDS011;4504;48.810;9.172;2024-03-29T13:26:44;110.17;;;2.80;;
8938;SDS011;4504;48.810;9.172;2024-03-29T13:29:10;109.63;;;2.80;;
8938;SDS011;4504;48.810;9.172;2024-03-29T13:31:38;111.03;;;2.60;;
8938;SDS011;4504;48.810;9.172;2024-03-29T13:34:04;109.37;;;2.57;;
8938;SDS011;4504;48.810;9.172;2024-03-29T13:36:40;109.40;;;2.70;;
8938;SDS011;4504;48.810;9.172;2024-03-29T13:39:07;112.47;;;2.53;;
8938;SDS011;4504;48.810;9.172;2024-03-29T13:41:34;110.10;;;2.73;;
8938;SDS011;4504;48.810;9.172;2024-03-29T13:44:00;110.67;;;2.70;;
8938;SDS011;4504;48.810;9.172;2024-03-29T13:46:34;109.10;;;2.63;;
8938;SDS011;4504;48.810;9.172;2024-03-29T13:49:00;109.73;;;2.67;;
8938;SDS011;4504;48.810;9.172;2024-03-29T13:51:27;108.70;;;2.40;;
8938;SDS011;4504;48.810;9.172;2024-03-29T13:53:53;107.80;;;2.17;;
8938;SDS011;4504;48.810;9.172;2024-03-29T13:56:21;108.50;;;2.73;;
8938;SDS011;4504;48.810;9.172;2024-03-29T13:58:48;108.57;;;2.60;;
8938;SDS011;4504;48.810;9.172;2024-03-29T14:01:13;106.77;;;2.27;;
8938;SDS011;4504;48.810;9.172;2024-03-29T14:03:39;108.57;;;2.67;;
8938;SDS011;4504;48.810;9.172;2024-03-29T14:06:05;108.43;;;2.40;;
8938;SDS011;4504;48.810;9.172;2024-03-29T14:08:32;108.57;;;2.57;;
8938;SDS011;4504;48.810;9.172;2024-03-29T14:10:58;108.23;;;2.10;;
8938;SDS011;4504;48.810;9.172;2024-03-29T14:13:24;107.90;;;2.20;;
8938;SDS011;4504;48.810;9.172;2024-03-29T14:15:50;108.83;;;2.83;;
8938;SDS011;4504;48.810;9.172;2024-03-29T14:18:16;108.80;;;2.20;;
8938;SDS011;4504;48.810;9.172;2024-03-29T14:20:41;108.40;;;2.23;;
8938;SDS011;4504;48.810;9.172;2024-03-29T14:23:07;111.60;;;2.30;;
8938;SDS011;4504;48.810;9.172;2024-03-29T14:25:38;108.13;;;2.50;;
8938;SDS011;4504;48.810;9.172;2024-03-29T14:28:03;107.20;;;2.37;;
8938;SDS011;4504;48.810;9.172;2024-03-29T14:30:30;107.97;;;2.90;;
8938;SDS011;4504;48.810;9.172;2024-03-29T14:32:56;109.63;;;2.83;;
8938;SDS011;4504;48.810;9.172;2024-03-29T14:35:22;109.33;;;2.50;;
8938;SDS011;4504;48.810;9.172;2024-03-29T14:37:49;109.10;;;2.47;;
8938;SDS011;4504;48.810;9.172;2024-03-29T14:40:15;109.13;;;2.90;;
8938;SDS011;4504;48.810;9.172;2024-03-29T14:42:41;109.50;;;2.63;;
8938;SDS011;4504;48.810;9.172;2024-03-29T14:45:07;109.40;;;2.70;;
8938;SDS011;4504;48.810;9.172;2024-03-29T14:47:36;110.23;;;2.90;;
8938;SDS011;4504;48.810;9.172;2024-03-29T14:50:03;109.30;;;2.70;;
8938;SDS011;4504;48.810;9.172;2024-03-29T14:52:30;113.17;;;2.90;;
8938;SDS011;4504;48.810;9.172;2024-03-29T14:54:56;110.20;;;2.63;;
8938;SDS011;4504;48.810;9.172;2024-03-29T14:57:22;109.47;;;2.33;;
8938;SDS011;4504;48.810;9.172;2024-03-29T14:59:48;108.97;;;2.20;;
8938;SDS011;4504;48.810;9.172;2024-03-29T15:02:14;109.53;;;2.40;;
8938;SDS011;4504;48.810;9.172;2024-03-29T15:04:40;110.40;;;2.90;;
8938;SDS011;4504;48.810;9.172;2024-03-29T15:07:05;112.00;;;2.70;;
8938;SDS011;4504;48.810;9.172;2024-03-29T15:09:33;109.07;;;2.73;;
8938;SDS011;4504;48.810;9.172;2024-03-29T15:12:00;109.03;;;2.43;;
8938;SDS011;4504;48.810;9.172;2024-03-29T15:14:28;108.40;;;2.37;;
8938;SDS011;4504;48.810;9.172;2024-03-29T15:16:54;109.60;;;2.43;;
8938;SDS011;4504;48.810;9.172;2024-03-29T15:19:21;109.00;;;2.67;;
8938;SDS011;4504;48.810;9.172;2024-03-29T15:21:47;111.20;;;2.50;;
8938;SDS011;4504;48.810;9.172;2024-03-29T15:24:14;108.30;;;2.40;;
8938;SDS011;4504;48.810;9.172;2024-03-29T15:26:41;113.30;;;2.90;;
8938;SDS011;4504;48.810;9.172;2024-03-29T15:29:07;110.20;;;2.60;;
8938;SDS011;4504;48.810;9.172;2024-03-29T15:31:42;109.60;;;2.70;;
8938;SDS011;4504;48.810;9.172;2024-03-29T15:34:12;108.93;;;2.80;;
8938;SDS011;4504;48.810;9.172;2024-03-29T15:36:38;109.67;;;2.70;;
8938;SDS011;4504;48.810;9.172;2024-03-29T15:39:04;111.07;;;2.93;;
8938;SDS011;4504;48.810;9.172;2024-03-29T15:41:33;109.77;;;2.83;;
8938;SDS011;4504;48.810;9.172;2024-03-29T15:44:02;109.27;;;2.80;;
8938;SDS011;4504;48.810;9.172;2024-03-29T15:46:29;109.97;;;2.93;;
8938;SDS011;4504;48.810;9.172;2024-03-29T15:48:55;110.20;;;3.20;;
8938;SDS011;4504;48.810;9.172;2024-03-29T15:51:22;112.30;;;3.47;;
8938;SDS011;4504;48.810;9.172;2024-03-29T15:54:09;112.27;;;3.40;;
8938;SDS011;4504;48.810;9.172;2024-03-29T15:56:48;110.87;;;3.30;;
8938;SDS011;4504;48.810;9.172;2024-03-29T15:59:14;110.87;;;2.80;;
8938;SDS011;4504;48.810;9.172;2024-03-29T16:01:40;112.30;;;2.90;;
8938;SDS011;4504;48.810;9.172;2024-03-29T16:04:06;111.80;;;3.00;;
8938;SDS011;4504;48.810;9.172;2024-03-29T16:06:32;111.80;;;2.90;;
8938;SDS011;4504;48.810;9.172;2024-03-29T16:08:58;112.50;;;2.80;;
8938;SDS011;4504;48.810;9.172;2024-03-29T16:11:24;112.40;;;3.10;;
8938;SDS011;4504;48.810;9.172;2024-03-29T16:14:00;111.20;;;2.90;;
8938;SDS011;4504;48.810;9.172;2024-03-29T16:16:26;112.23;;;2.80;;
8938;SDS011;4504;48.810;9.172;2024-03-29T16:18:52;112.07;;;3.00;;
8938;SDS011;4504;48.810;9.172;2024-03-29T16:21:18;111.77;;;2.63;;
8938;SDS011;4504;48.810;9.172;2024-03-29T16:23:44;112.43;;;2.90;;
8938;SDS011;4504;48.810;9.172;2024-03-29T16:26:09;113.47;;;3.47;;
8938;SDS011;4504;48.810;9.172;2024-03-29T16:28:36;112.50;;;3.10;;
8938;SDS011;4504;48.810;9.172;2024-03-29T16:31:02;115.30;;;3.83;;
8938;SDS011;4504;48.810;9.172;2024-03-29T16:33:27;112.90;;;2.90;;
8938;SDS011;4504;48.810;9.172;2024-03-29T16:35:53;112.37;;;3.33;;
8938;SDS011;4504;48.810;9.172;2024-03-29T16:38:19;113.67;;;3.47;;
8938;SDS011;4504;48.810;9.172;2024-03-29T16:40:46;113.97;;;3.70;;
8938;SDS011;4504;48.810;9.172;2024-03-29T16:43:12;112.63;;;3.50;;
8938;SDS011;4504;48.810;9.172;2024-03-29T16:45:39;112.87;;;3.20;;
8938;SDS011;4504;48.810;9.172;2024-03-29T16:48:05;111.80;;;3.00;;
8938;SDS011;4504;48.810;9.172;2024-03-29T16:50:31;128.37;;;3.50;;
8938;SDS011;4504;48.810;9.172;2024-03-29T16:52:57;113.17;;;3.17;;
8938;SDS011;4504;48.810;9.172;2024-03-29T16:55:23;114.97;;;3.40;;
8938;SDS011;4504;48.810;9.172;2024-03-29T16:57:50;112.13;;;3.10;;
8938;SDS011;4504;48.810;9.172;2024-03-29T17:00:16;114.40;;;3.70;;
8938;SDS011;4504;48.810;9.172;2024-03-29T17:02:42;113.93;;;3.77;;
8938;SDS011;4504;48.810;9.172;2024-03-29T17:05:08;113.77;;;2.90;;
8938;SDS011;4504;48.810;9.172;2024-03-29T17:07:34;113.00;;;3.20;;
8938;SDS011;4504;48.810;9.172;2024-03-29T17:10:01;113.57;;;3.40;;
8938;SDS011;4504;48.810;9.172;2024-03-29T17:12:28;113.20;;;3.20;;
8938;SDS011;4504;48.810;9.172;2024-03-29T17:14:54;114.40;;;3.30;;
8938;SDS011;4504;48.810;9.172;2024-03-29T17:17:20;113.47;;;3.33;;
8938;SDS011;4504;48.810;9.172;2024-03-29T17:19:46;114.07;;;3.47;;
8938;SDS011;4504;48.810;9.172;2024-03-29T17:22:12;114.53;;;3.40;;
8938;SDS011;4504;48.810;9.172;2024-03-29T17:24:38;113.10;;;3.20;;
8938;SDS011;4504;48.810;9.172;2024-03-29T17:27:04;114.67;;;3.63;;
8938;SDS011;4504;48.810;9.172;2024-03-29T17:29:30;114.05;;;3.40;;
8938;SDS011;4504;48.810;9.172;2024-03-29T17:31:56;113.70;;;3.07;;
8938;SDS011;4504;48.810;9.172;2024-03-29T17:34:22;113.97;;;3.20;;
8938;SDS011;4504;48.810;9.172;2024-03-29T17:36:47;114.17;;;3.40;;
8938;SDS011;4504;48.810;9.172;2024-03-29T17:39:13;113.28;;;3.25;;
8938;SDS011;4504;48.810;9.172;2024-03-29T17:41:40;114.07;;;4.00;;
8938;SDS011;4504;48.810;9.172;2024-03-29T17:44:07;114.67;;;3.70;;
8938;SDS011;4504;48.810;9.172;2024-03-29T17:46:33;115.93;;;3.53;;
8938;SDS011;4504;48.810;9.172;2024-03-29T17:49:00;117.18;;;4.10;;
8938;SDS011;4504;48.810;9.172;2024-03-29T17:51:25;115.47;;;4.00;;
8938;SDS011;4504;48.810;9.172;2024-03-29T17:53:51;118.37;;;3.53;;
8938;SDS011;4504;48.810;9.172;2024-03-29T17:56:17;115.03;;;3.50;;
8938;SDS011;4504;48.810;9.172;2024-03-29T17:58:43;114.28;;;3.35;;
8938;SDS011;4504;48.810;9.172;2024-03-29T18:01:11;113.97;;;3.40;;
8938;SDS011;4504;48.810;9.172;2024-03-29T18:03:41;115.55;;;3.85;;
8938;SDS011;4504;48.810;9.172;2024-03-29T18:06:08;115.65;;;3.92;;
8938;SDS011;4504;48.810;9.172;2024-03-29T18:08:34;114.63;;;3.63;;
8938;SDS011;4504;48.810;9.172;2024-03-29T18:10:59;113.93;;;3.77;;
8938;SDS011;4504;48.810;9.172;2024-03-29T18:13:25;114.57;;;3.37;;
8938;SDS011;4504;48.810;9.172;2024-03-29T18:15:51;114.97;;;3.63;;
8938;SDS011;4504;48.810;9.172;2024-03-29T18:18:17;114.83;;;4.73;;
8938;SDS011;4504;48.810;9.172;2024-03-29T18:20:45;114.90;;;3.50;;
8938;SDS011;4504;48.810;9.172;2024-03-29T18:23:11;114.57;;;3.50;;
8938;SDS011;4504;48.810;9.172;2024-03-29T18:25:36;114.83;;;3.53;;
8938;SDS011;4504;48.810;9.172;2024-03-29T18:28:02;114.97;;;4.20;;
8938;SDS011;4504;48.810;9.172;2024-03-29T18:30:29;116.90;;;4.15;;
8938;SDS011;4504;48.810;9.172;2024-03-29T18:33:00;114.43;;;3.55;;
8938;SDS011;4504;48.810;9.172;2024-03-29T18:35:26;115.07;;;3.47;;
8938;SDS011;4504;48.810;9.172;2024-03-29T18:37:53;114.55;;;3.58;;
8938;SDS011;4504;48.810;9.172;2024-03-29T18:40:18;114.97;;;3.30;;
8938;SDS011;4504;48.810;9.172;2024-03-29T18:42:47;114.50;;;3.33;;
8938;SDS011;4504;48.810;9.172;2024-03-29T18:45:14;114.43;;;4.10;;
8938;SDS011;4504;48.810;9.172;2024-03-29T18:47:47;114.15;;;4.18;;
8938;SDS011;4504;48.810;9.172;2024-03-29T18:50:16;113.82;;;3.20;;
8938;SDS011;4504;48.810;9.172;2024-03-29T18:52:42;114.40;;;3.70;;
8938;SDS011;4504;48.810;9.172;2024-03-29T18:55:11;113.93;;;3.60;;
8938;SDS011;4504;48.810;9.172;2024-03-29T18:57:37;114.93;;;3.53;;
8938;SDS011;4504;48.810;9.172;2024-03-29T19:00:04;114.22;;;4.15;;
8938;SDS011;4504;48.810;9.172;2024-03-29T19:02:31;115.15;;;3.72;;
8938;SDS011;4504;48.810;9.172;2024-03-29T19:04:57;115.60;;;3.70;;
8938;SDS011;4504;48.810;9.172;2024-03-29T19:07:23;113.90;;;3.47;;
8938;SDS011;4504;48.810;9.172;2024-03-29T19:09:48;114.40;;;3.40;;
8938;SDS011;4504;48.810;9.172;2024-03-29T19:12:14;114.90;;;3.70;;
8938;SDS011;4504;48.810;9.172;2024-03-29T19:14:48;115.05;;;3.60;;
8938;SDS011;4504;48.810;9.172;2024-03-29T19:17:15;114.10;;;3.72;;
8938;SDS011;4504;48.810;9.172;2024-03-29T19:19:41;115.80;;;3.60;;
8938;SDS011;4504;48.810;9.172;2024-03-29T19:22:07;115.43;;;4.20;;
8938;SDS011;4504;48.810;9.172;2024-03-29T19:24:33;115.30;;;3.60;;
8938;SDS011;4504;48.810;9.172;2024-03-29T19:26:59;115.30;;;4.03;;
8938;SDS011;4504;48.810;9.172;2024-03-29T19:29:25;114.03;;;3.40;;
8938;SDS011;4504;48.810;9.172;2024-03-29T19:31:50;115.20;;;4.40;;
8938;SDS011;4504;48.810;9.172;2024-03-29T19:34:16;113.00;;;3.80;;
8938;SDS011;4504;48.810;9.172;2024-03-29T19:36:42;114.73;;;3.20;;
8938;SDS011;4504;48.810;9.172;2024-03-29T19:39:08;115.60;;;4.03;;
8938;SDS011;4504;48.810;9.172;2024-03-29T19:41:36;114.25;;;3.72;;
8938;SDS011;4504;48.810;9.172;2024-03-29T19:44:02;115.53;;;4.00;;
8938;SDS011;4504;48.810;9.172;2024-03-29T19:46:29;113.93;;;3.65;;
8938;SDS011;4504;48.810;9.172;2024-03-29T19:48:55;114.50;;;3.90;;
8938;SDS011;4504;48.810;9.172;2024-03-29T19:51:21;115.30;;;3.83;;
8938;SDS011;4504;48.810;9.172;2024-03-29T19:53:47;115.53;;;3.63;;
8938;SDS011;4504;48.810;9.172;2024-03-29T19:56:15;113.18;;;3.67;;
8938;SDS011;4504;48.810;9.172;2024-03-29T19:58:41;116.15;;;3.75;;
8938;SDS011;4504;48.810;9.172;2024-03-29T20:01:07;114.67;;;3.43;;
8938;SDS011;4504;48.810;9.172;2024-03-29T20:03:33;114.50;;;4.03;;
8938;SDS011;4504;48.810;9.172;2024-03-29T20:05:59;115.57;;;4.00;;
8938;SDS011;4504;48.810;9.172;2024-03-29T20:08:25;114.67;;;4.00;;
8938;SDS011;4504;48.810;9.172;2024-03-29T20:10:50;118.80;;;4.43;;
8938;SDS011;4504;48.810;9.172;2024-03-29T20:13:16;116.23;;;4.30;;
8938;SDS011;4504;48.810;9.172;2024-03-29T20:15:46;119.97;;;4.40;;
8938;SDS011;4504;48.810;9.172;2024-03-29T20:18:13;116.47;;;4.32;;
8938;SDS011;4504;48.810;9.172;2024-03-29T20:20:47;117.28;;;4.20;;
8938;SDS011;4504;48.810;9.172;2024-03-29T20:23:17;115.90;;;4.00;;
8938;SDS011;4504;48.810;9.172;2024-03-29T20:25:43;115.68;;;4.50;;
8938;SDS011;4504;48.810;9.172;2024-03-29T20:28:10;116.63;;;4.38;;
8938;SDS011;4504;48.810;9.172;2024-03-29T20:30:37;117.13;;;4.05;;
8938;SDS011;4504;48.810;9.172;2024-03-29T20:33:04;115.35;;;3.67;;
8938;SDS011;4504;48.810;9.172;2024-03-29T20:35:30;115.22;;;3.70;;
8938;SDS011;4504;48.810;9.172;2024-03-29T20:38:03;117.53;;;4.38;;
8938;SDS011;4504;48.810;9.172;2024-03-29T20:40:29;115.97;;;3.90;;
8938;SDS011;4504;48.810;9.172;2024-03-29T20:42:54;115.57;;;3.93;;
8938;SDS011;4504;48.810;9.172;2024-03-29T20:45:20;116.57;;;4.03;;
8938;SDS011;4504;48.810;9.172;2024-03-29T20:47:46;116.60;;;4.33;;
8938;SDS011;4504;48.810;9.172;2024-03-29T20:50:12;117.27;;;4.13;;
8938;SDS011;4504;48.810;9.172;2024-03-29T20:52:38;117.13;;;4.13;;
8938;SDS011;4504;48.810;9.172;2024-03-29T20:55:04;116.00;;;4.37;;
8938;SDS011;4504;48.810;9.172;2024-03-29T20:57:32;117.18;;;4.47;;
8938;SDS011;4504;48.810;9.172;2024-03-29T20:59:58;117.97;;;3.88;;
8938;SDS011;4504;48.810;9.172;2024-03-29T21:02:25;116.43;;;3.83;;
8938;SDS011;4504;48.810;9.172;2024-03-29T21:05:09;116.35;;;4.30;;
8938;SDS011;4504;48.810;9.172;2024-03-29T21:07:54;115.95;;;3.70;;
8938;SDS011;4504;48.810;9.172;2024-03-29T21:10:20;117.10;;;3.92;;
8938;SDS011;4504;48.810;9.172;2024-03-29T21:12:47;115.82;;;3.90;;
8938;SDS011;4504;48.810;9.172;2024-03-29T21:15:13;117.13;;;4.57;;
8938;SDS011;4504;48.810;9.172;2024-03-29T21:17:42;121.13;;;4.40;;
8938;SDS011;4504;48.810;9.172;2024-03-29T21:20:08;117.53;;;4.20;;
8938;SDS011;4504;48.810;9.172;2024-03-29T21:25:07;118.18;;;4.95;;
8938;SDS011;4504;48.810;9.172;2024-03-29T21:27:34;116.95;;;4.25;;
8938;SDS011;4504;48.810;9.172;2024-03-29T21:30:02;117.75;;;4.40;;
8938;SDS011;4504;48.810;9.172;2024-03-29T21:32:33;119.32;;;4.43;;
8938;SDS011;4504;48.810;9.172;2024-03-29T21:35:02;116.38;;;4.43;;
8938;SDS011;4504;48.810;9.172;2024-03-29T21:37:29;118.18;;;4.53;;
8938;SDS011;4504;48.810;9.172;2024-03-29T21:39:56;116.90;;;4.15;;
8938;SDS011;4504;48.810;9.172;2024-03-29T21:42:22;118.80;;;4.47;;
8938;SDS011;4504;48.810;9.172;2024-03-29T21:44:48;116.03;;;4.63;;
8938;SDS011;4504;48.810;9.172;2024-03-29T21:47:14;116.18;;;4.35;;
8938;SDS011;4504;48.810;9.172;2024-03-29T21:49:41;117.43;;;4.88;;
8938;SDS011;4504;48.810;9.172;2024-03-29T21:52:07;117.25;;;4.60;;
8938;SDS011;4504;48.810;9.172;2024-03-29T21:54:34;117.85;;;4.82;;
8938;SDS011;4504;48.810;9.172;2024-03-29T21:57:01;119.32;;;4.72;;
8938;SDS011;4504;48.810;9.172;2024-03-29T21:59:27;117.70;;;4.85;;
8938;SDS011;4504;48.810;9.172;2024-03-29T22:01:53;117.22;;;4.57;;
8938;SDS011;4504;48.810;9.172;2024-03-29T22:04:19;116.50;;;4.50;;
8938;SDS011;4504;48.810;9.172;2024-03-29T22:06:45;118.37;;;5.03;;
8938;SDS011;4504;48.810;9.172;2024-03-29T22:09:11;117.22;;;4.88;;
8938;SDS011;4504;48.810;9.172;2024-03-29T22:11:37;117.57;;;5.13;;
8938;SDS011;4504;48.810;9.172;2024-03-29T22:14:03;117.47;;;4.57;;
8938;SDS011;4504;48.810;9.172;2024-03-29T22:16:29;117.53;;;4.95;;
8938;SDS011;4504;48.810;9.172;2024-03-29T22:18:55;119.40;;;5.57;;
8938;SDS011;4504;48.810;9.172;2024-03-29T22:21:21;118.10;;;4.80;;
8938;SDS011;4504;48.810;9.172;2024-03-29T22:23:47;118.00;;;4.80;;
8938;SDS011;4504;48.810;9.172;2024-03-29T22:26:12;119.70;;;4.57;;
8938;SDS011;4504;48.810;9.172;2024-03-29T22:28:38;117.50;;;4.30;;
8938;SDS011;4504;48.810;9.172;2024-03-29T22:31:04;118.40;;;4.20;;
8938;SDS011;4504;48.810;9.172;2024-03-29T22:33:32;117.35;;;4.28;;
8938;SDS011;4504;48.810;9.172;2024-03-29T22:35:58;120.32;;;4.60;;
8938;SDS011;4504;48.810;9.172;2024-03-29T22:38:25;117.78;;;4.32;;
8938;SDS011;4504;48.810;9.172;2024-03-29T22:40:51;116.67;;;5.23;;
8938;SDS011;4504;48.810;9.172;2024-03-29T22:43:18;118.38;;;5.05;;
8938;SDS011;4504;48.810;9.172;2024-03-29T22:45:43;119.28;;;5.00;;
8938;SDS011;4504;48.810;9.172;2024-03-29T22:48:09;117.57;;;4.97;;
8938;SDS011;4504;48.810;9.172;2024-03-29T22:50:42;117.97;;;4.60;;
8938;SDS011;4504;48.810;9.172;2024-03-29T22:53:11;119.68;;;5.20;;
8938;SDS011;4504;48.810;9.172;2024-03-29T22:55:36;121.27;;;6.87;;
8938;SDS011;4504;48.810;9.172;2024-03-29T22:58:02;118.40;;;5.00;;
8938;SDS011;4504;48.810;9.172;2024-03-29T23:00:28;120.32;;;5.85;;
8938;SDS011;4504;48.810;9.172;2024-03-29T23:02:54;118.82;;;5.05;;
8938;SDS011;4504;48.810;9.172;2024-03-29T23:05:21;118.82;;;4.93;;
8938;SDS011;4504;48.810;9.172;2024-03-29T23:07:52;119.93;;;5.20;;
8938;SDS011;4504;48.810;9.172;2024-03-29T23:10:19;116.90;;;4.30;;
8938;SDS011;4504;48.810;9.172;2024-03-29T23:12:48;119.18;;;5.18;;
8938;SDS011;4504;48.810;9.172;2024-03-29T23:15:15;119.93;;;5.65;;
8938;SDS011;4504;48.810;9.172;2024-03-29T23:17:41;118.85;;;4.82;;
8938;SDS011;4504;48.810;9.172;2024-03-29T23:20:08;120.00;;;5.00;;
8938;SDS011;4504;48.810;9.172;2024-03-29T23:22:35;122.38;;;4.90;;
8938;SDS011;4504;48.810;9.172;2024-03-29T23:25:02;117.38;;;4.60;;
8938;SDS011;4504;48.810;9.172;2024-03-29T23:27:29;116.75;;;4.80;;
8938;SDS011;4504;48.810;9.172;2024-03-29T23:29:59;117.03;;;4.50;;
8938;SDS011;4504;48.810;9.172;2024-03-29T23:32:25;120.32;;;4.50;;
8938;SDS011;4504;48.810;9.172;2024-03-29T23:34:51;117.88;;;4.45;;
8938;SDS011;4504;48.810;9.172;2024-03-29T23:37:17;117.60;;;4.70;;
8938;SDS011;4504;48.810;9.172;2024-03-29T23:39:44;117.77;;;5.17;;
8938;SDS011;4504;48.810;9.172;2024-03-29T23:42:10;117.93;;;4.93;;
8938;SDS011;4504;48.810;9.172;2024-03-29T23:44:36;117.97;;;4.70;;
8938;SDS011;4504;48.810;9.172;2024-03-29T23:47:02;117.30;;;4.80;;
8938;SDS011;4504;48.810;9.172;2024-03-29T23:49:27;119.07;;;5.03;;
8938;SDS011;4504;48.810;9.172;2024-03-29T23:51:53;117.17;;;4.50;;
8938;SDS011;4504;48.810;9.172;2024-03-29T23:54:20;117.63;;;4.55;;
8938;SDS011;4504;48.810;9.172;2024-03-29T23:56:46;118.68;;;4.95;;
8938;SDS011;4504;48.810;9.172;2024-03-29T23:59:12;118.10;;;5.20;;
